sensor_id;sensor_type;location;lat;lon;timestamp;P1;durP1;ratioP1;P2;durP2;ratioP2
10134;SDS011;5107;48.850;8.924;2023-06-14T00:02:16;6.60;;;4.03;;
10134;SDS011;5107;48.850;8.924;2023-06-14T00:04:41;4.90;;;4.20;;
10134;SDS011;5107;48.850;8.924;2023-06-14T00:07:06;5.73;;;4.33;;
10134;SDS011;5107;48.850;8.924;2023-06-14T00:09:35;4.97;;;4.03;;
10134;SDS011;5107;48.850;8.924;2023-06-14T00:12:00;5.67;;;3.77;;
10134;SDS011;5107;48.850;8.924;2023-06-14T00:14:26;4.80;;;4.20;;
10134;SDS011;5107;48.850;8.924;2023-06-14T00:16:51;4.23;;;3.83;;
10134;SDS011;5107;48.850;8.924;2023-06-14T00:19:18;5.57;;;4.17;;
10134;SDS011;5107;48.850;8.924;2023-06-14T00:21:44;4.97;;;4.10;;
10134;SDS011;5107;48.850;8.924;2023-06-14T00:24:10;5.80;;;3.97;;
10134;SDS011;5107;48.850;8.924;2023-06-14T00:26:35;6.10;;;4.00;;
10134;SDS011;5107;48.850;8.924;2023-06-14T00:29:01;5.73;;;3.77;;
10134;SDS011;5107;48.850;8.924;2023-06-14T00:31:26;5.33;;;4.10;;
10134;SDS011;5107;48.850;8.924;2023-06-14T00:33:52;4.63;;;3.90;;
10134;SDS011;5107;48.850;8.924;2023-06-14T00:36:17;5.10;;;3.93;;
10134;SDS011;5107;48.850;8.924;2023-06-14T00:38:42;4.83;;;3.60;;
10134;SDS011;5107;48.850;8.924;2023-06-14T00:41:08;4.83;;;4.13;;
10134;SDS011;5107;48.850;8.924;2023-06-14T00:43:33;5.17;;;4.67;;
10134;SDS011;5107;48.850;8.924;2023-06-14T00:45:59;8.10;;;4.33;;
10134;SDS011;5107;48.850;8.924;2023-06-14T00:48:25;5.23;;;4.37;;
10134;SDS011;5107;48.850;8.924;2023-06-14T00:50:50;6.33;;;3.87;;
10134;SDS011;5107;48.850;8.924;2023-06-14T00:53:17;5.13;;;4.63;;
10134;SDS011;5107;48.850;8.924;2023-06-14T00:55:45;6.37;;;4.27;;
10134;SDS011;5107;48.850;8.924;2023-06-14T00:58:11;5.93;;;4.20;;
10134;SDS011;5107;48.850;8.924;2023-06-14T01:00:37;5.40;;;4.37;;
10134;SDS011;5107;48.850;8.924;2023-06-14T01:03:02;4.93;;;4.43;;
10134;SDS011;5107;48.850;8.924;2023-06-14T01:05:28;5.07;;;4.37;;
10134;SDS011;5107;48.850;8.924;2023-06-14T01:13:34;5.33;;;4.30;;
10134;SDS011;5107;48.850;8.924;2023-06-14T01:16:01;5.03;;;4.30;;
10134;SDS011;5107;48.850;8.924;2023-06-14T01:18:28;5.00;;;4.37;;
10134;SDS011;5107;48.850;8.924;2023-06-14T01:20:54;6.33;;;4.50;;
10134;SDS011;5107;48.850;8.924;2023-06-14T01:23:21;5.33;;;4.80;;
10134;SDS011;5107;48.850;8.924;2023-06-14T01:25:47;5.37;;;4.67;;
10134;SDS011;5107;48.850;8.924;2023-06-14T01:28:18;6.27;;;4.20;;
10134;SDS011;5107;48.850;8.924;2023-06-14T01:30:47;6.70;;;4.90;;
10134;SDS011;5107;48.850;8.924;2023-06-14T01:33:18;4.90;;;4.40;;
10134;SDS011;5107;48.850;8.924;2023-06-14T01:35:49;6.80;;;5.07;;
10134;SDS011;5107;48.850;8.924;2023-06-14T01:38:20;4.80;;;4.33;;
10134;SDS011;5107;48.850;8.924;2023-06-14T01:40:47;10.13;;;4.70;;
10134;SDS011;5107;48.850;8.924;2023-06-14T01:43:15;5.13;;;4.37;;
10134;SDS011;5107;48.850;8.924;2023-06-14T01:45:41;4.43;;;4.03;;
10134;SDS011;5107;48.850;8.924;2023-06-14T01:48:08;7.13;;;4.70;;
10134;SDS011;5107;48.850;8.924;2023-06-14T01:50:34;6.17;;;4.57;;
10134;SDS011;5107;48.850;8.924;2023-06-14T01:52:59;5.77;;;4.77;;
10134;SDS011;5107;48.850;8.924;2023-06-14T01:55:25;4.77;;;4.30;;
10134;SDS011;5107;48.850;8.924;2023-06-14T01:57:51;6.60;;;4.43;;
10134;SDS011;5107;48.850;8.924;2023-06-14T02:00:17;5.43;;;4.53;;
10134;SDS011;5107;48.850;8.924;2023-06-14T02:02:43;5.17;;;4.67;;
10134;SDS011;5107;48.850;8.924;2023-06-14T02:05:09;5.57;;;4.43;;
10134;SDS011;5107;48.850;8.924;2023-06-14T02:07:35;4.83;;;4.43;;
10134;SDS011;5107;48.850;8.924;2023-06-14T02:10:01;6.83;;;4.77;;
10134;SDS011;5107;48.850;8.924;2023-06-14T02:12:27;4.90;;;4.40;;
10134;SDS011;5107;48.850;8.924;2023-06-14T02:14:53;5.43;;;4.60;;
10134;SDS011;5107;48.850;8.924;2023-06-14T02:17:19;6.60;;;4.60;;
10134;SDS011;5107;48.850;8.924;2023-06-14T02:19:44;5.17;;;4.77;;
10134;SDS011;5107;48.850;8.924;2023-06-14T02:22:10;4.90;;;4.40;;
10134;SDS011;5107;48.850;8.924;2023-06-14T02:24:35;5.70;;;4.70;;
10134;SDS011;5107;48.850;8.924;2023-06-14T02:27:01;5.50;;;4.77;;
10134;SDS011;5107;48.850;8.924;2023-06-14T02:29:26;4.77;;;4.37;;
10134;SDS011;5107;48.850;8.924;2023-06-14T02:31:52;5.00;;;4.50;;
10134;SDS011;5107;48.850;8.924;2023-06-14T02:34:17;5.57;;;4.50;;
10134;SDS011;5107;48.850;8.924;2023-06-14T02:36:44;5.00;;;4.60;;
10134;SDS011;5107;48.850;8.924;2023-06-14T02:39:10;7.07;;;4.73;;
10134;SDS011;5107;48.850;8.924;2023-06-14T02:41:36;5.53;;;5.03;;
10134;SDS011;5107;48.850;8.924;2023-06-14T02:44:02;8.13;;;5.40;;
10134;SDS011;5107;48.850;8.924;2023-06-14T02:46:28;7.87;;;4.97;;
10134;SDS011;5107;48.850;8.924;2023-06-14T02:48:53;8.37;;;5.33;;
10134;SDS011;5107;48.850;8.924;2023-06-14T02:51:18;7.13;;;5.17;;
10134;SDS011;5107;48.850;8.924;2023-06-14T02:53:44;6.13;;;4.73;;
10134;SDS011;5107;48.850;8.924;2023-06-14T02:56:09;6.47;;;5.00;;
10134;SDS011;5107;48.850;8.924;2023-06-14T02:58:36;4.87;;;4.47;;
10134;SDS011;5107;48.850;8.924;2023-06-14T03:01:02;5.10;;;4.67;;
10134;SDS011;5107;48.850;8.924;2023-06-14T03:03:30;6.13;;;4.77;;
10134;SDS011;5107;48.850;8.924;2023-06-14T03:05:56;5.10;;;4.67;;
10134;SDS011;5107;48.850;8.924;2023-06-14T03:08:22;6.17;;;5.03;;
10134;SDS011;5107;48.850;8.924;2023-06-14T03:10:52;5.87;;;5.27;;
10134;SDS011;5107;48.850;8.924;2023-06-14T03:13:18;5.80;;;5.17;;
10134;SDS011;5107;48.850;8.924;2023-06-14T03:15:46;8.20;;;5.43;;
10134;SDS011;5107;48.850;8.924;2023-06-14T03:18:14;6.50;;;5.30;;
10134;SDS011;5107;48.850;8.924;2023-06-14T03:20:40;5.87;;;5.30;;
10134;SDS011;5107;48.850;8.924;2023-06-14T03:23:07;5.53;;;5.03;;
10134;SDS011;5107;48.850;8.924;2023-06-14T03:25:32;5.67;;;5.17;;
10134;SDS011;5107;48.850;8.924;2023-06-14T03:28:03;5.70;;;4.97;;
10134;SDS011;5107;48.850;8.924;2023-06-14T03:30:30;6.10;;;5.33;;
10134;SDS011;5107;48.850;8.924;2023-06-14T03:32:55;8.10;;;5.13;;
10134;SDS011;5107;48.850;8.924;2023-06-14T03:35:21;6.20;;;5.10;;
10134;SDS011;5107;48.850;8.924;2023-06-14T03:37:47;6.43;;;4.70;;
10134;SDS011;5107;48.850;8.924;2023-06-14T03:40:14;6.37;;;4.73;;
10134;SDS011;5107;48.850;8.924;2023-06-14T03:42:41;5.60;;;5.10;;
10134;SDS011;5107;48.850;8.924;2023-06-14T03:45:06;5.57;;;4.97;;
10134;SDS011;5107;48.850;8.924;2023-06-14T03:47:32;6.40;;;5.23;;
10134;SDS011;5107;48.850;8.924;2023-06-14T03:49:58;6.80;;;5.13;;
10134;SDS011;5107;48.850;8.924;2023-06-14T03:52:25;6.70;;;4.90;;
10134;SDS011;5107;48.850;8.924;2023-06-14T03:54:51;6.43;;;5.13;;
10134;SDS011;5107;48.850;8.924;2023-06-14T03:57:16;6.40;;;4.97;;
10134;SDS011;5107;48.850;8.924;2023-06-14T03:59:42;7.23;;;5.07;;
10134;SDS011;5107;48.850;8.924;2023-06-14T04:02:08;6.33;;;5.03;;
10134;SDS011;5107;48.850;8.924;2023-06-14T04:04:34;6.23;;;5.07;;
10134;SDS011;5107;48.850;8.924;2023-06-14T04:07:00;6.57;;;5.33;;
10134;SDS011;5107;48.850;8.924;2023-06-14T04:09:28;7.70;;;5.13;;
10134;SDS011;5107;48.850;8.924;2023-06-14T04:11:54;5.57;;;4.90;;
10134;SDS011;5107;48.850;8.924;2023-06-14T04:14:20;5.57;;;5.07;;
10134;SDS011;5107;48.850;8.924;2023-06-14T04:16:46;5.20;;;4.67;;
10134;SDS011;5107;48.850;8.924;2023-06-14T04:19:12;5.23;;;4.63;;
10134;SDS011;5107;48.850;8.924;2023-06-14T04:21:38;5.67;;;4.87;;
10134;SDS011;5107;48.850;8.924;2023-06-14T04:24:03;5.40;;;4.70;;
10134;SDS011;5107;48.850;8.924;2023-06-14T04:26:29;4.90;;;4.40;;
10134;SDS011;5107;48.850;8.924;2023-06-14T04:28:58;5.05;;;4.55;;
10134;SDS011;5107;48.850;8.924;2023-06-14T04:31:27;5.82;;;4.85;;
10134;SDS011;5107;48.850;8.924;2023-06-14T04:33:58;5.15;;;4.45;;
10134;SDS011;5107;48.850;8.924;2023-06-14T04:36:24;6.35;;;4.95;;
10134;SDS011;5107;48.850;8.924;2023-06-14T04:38:51;5.82;;;5.18;;
10134;SDS011;5107;48.850;8.924;2023-06-14T04:41:21;5.40;;;4.90;;
10134;SDS011;5107;48.850;8.924;2023-06-14T04:43:48;6.65;;;4.80;;
10134;SDS011;5107;48.850;8.924;2023-06-14T04:46:14;5.93;;;5.28;;
10134;SDS011;5107;48.850;8.924;2023-06-14T04:48:40;5.40;;;4.90;;
10134;SDS011;5107;48.850;8.924;2023-06-14T04:51:07;5.20;;;4.68;;
10134;SDS011;5107;48.850;8.924;2023-06-14T04:53:33;5.35;;;4.68;;
10134;SDS011;5107;48.850;8.924;2023-06-14T04:55:59;9.85;;;4.72;;
10134;SDS011;5107;48.850;8.924;2023-06-14T04:58:26;5.22;;;4.72;;
10134;SDS011;5107;48.850;8.924;2023-06-14T05:00:52;5.88;;;4.85;;
10134;SDS011;5107;48.850;8.924;2023-06-14T05:03:18;5.65;;;5.05;;
10134;SDS011;5107;48.850;8.924;2023-06-14T05:05:46;6.22;;;5.03;;
10134;SDS011;5107;48.850;8.924;2023-06-14T05:08:11;6.22;;;5.15;;
10134;SDS011;5107;48.850;8.924;2023-06-14T05:10:36;4.70;;;4.30;;
10134;SDS011;5107;48.850;8.924;2023-06-14T05:13:02;5.85;;;4.43;;
10134;SDS011;5107;48.850;8.924;2023-06-14T05:15:27;4.93;;;4.32;;
10134;SDS011;5107;48.850;8.924;2023-06-14T05:17:54;5.72;;;4.70;;
10134;SDS011;5107;48.850;8.924;2023-06-14T05:20:24;8.73;;;4.60;;
10134;SDS011;5107;48.850;8.924;2023-06-14T05:22:52;5.15;;;4.68;;
10134;SDS011;5107;48.850;8.924;2023-06-14T05:25:20;6.97;;;4.95;;
10134;SDS011;5107;48.850;8.924;2023-06-14T05:27:46;7.53;;;4.80;;
10134;SDS011;5107;48.850;8.924;2023-06-14T05:30:12;5.63;;;5.13;;
10134;SDS011;5107;48.850;8.924;2023-06-14T05:32:39;5.63;;;4.80;;
10134;SDS011;5107;48.850;8.924;2023-06-14T05:35:04;5.28;;;4.78;;
10134;SDS011;5107;48.850;8.924;2023-06-14T05:37:31;6.38;;;4.90;;
10134;SDS011;5107;48.850;8.924;2023-06-14T05:39:56;4.97;;;4.50;;
10134;SDS011;5107;48.850;8.924;2023-06-14T05:42:21;5.17;;;4.67;;
10134;SDS011;5107;48.850;8.924;2023-06-14T05:44:47;6.73;;;5.23;;
10134;SDS011;5107;48.850;8.924;2023-06-14T05:47:12;7.77;;;5.00;;
10134;SDS011;5107;48.850;8.924;2023-06-14T05:49:37;6.90;;;5.13;;
10134;SDS011;5107;48.850;8.924;2023-06-14T05:52:03;7.07;;;5.40;;
10134;SDS011;5107;48.850;8.924;2023-06-14T05:54:28;6.13;;;5.53;;
10134;SDS011;5107;48.850;8.924;2023-06-14T05:56:54;7.13;;;5.40;;
10134;SDS011;5107;48.850;8.924;2023-06-14T05:59:19;5.70;;;5.10;;
10134;SDS011;5107;48.850;8.924;2023-06-14T06:01:45;6.00;;;5.40;;
10134;SDS011;5107;48.850;8.924;2023-06-14T06:04:11;6.00;;;5.37;;
10134;SDS011;5107;48.850;8.924;2023-06-14T06:06:36;7.03;;;5.17;;
10134;SDS011;5107;48.850;8.924;2023-06-14T06:09:02;6.17;;;5.53;;
10134;SDS011;5107;48.850;8.924;2023-06-14T06:11:27;6.43;;;4.87;;
10134;SDS011;5107;48.850;8.924;2023-06-14T06:13:53;6.57;;;5.17;;
10134;SDS011;5107;48.850;8.924;2023-06-14T06:16:18;5.77;;;4.80;;
10134;SDS011;5107;48.850;8.924;2023-06-14T06:18:43;7.20;;;5.17;;
10134;SDS011;5107;48.850;8.924;2023-06-14T06:21:09;9.20;;;5.77;;
10134;SDS011;5107;48.850;8.924;2023-06-14T06:23:34;7.40;;;5.20;;
10134;SDS011;5107;48.850;8.924;2023-06-14T06:26:00;7.23;;;5.30;;
10134;SDS011;5107;48.850;8.924;2023-06-14T06:28:26;5.70;;;5.10;;
10134;SDS011;5107;48.850;8.924;2023-06-14T06:30:51;7.97;;;5.40;;
10134;SDS011;5107;48.850;8.924;2023-06-14T06:33:17;7.10;;;5.33;;
10134;SDS011;5107;48.850;8.924;2023-06-14T06:35:42;5.78;;;5.25;;
10134;SDS011;5107;48.850;8.924;2023-06-14T06:38:07;6.67;;;5.67;;
10134;SDS011;5107;48.850;8.924;2023-06-14T06:40:34;6.87;;;5.23;;
10134;SDS011;5107;48.850;8.924;2023-06-14T06:43:01;6.20;;;5.57;;
10134;SDS011;5107;48.850;8.924;2023-06-14T06:45:27;6.70;;;5.83;;
10134;SDS011;5107;48.850;8.924;2023-06-14T06:47:52;5.45;;;4.88;;
10134;SDS011;5107;48.850;8.924;2023-06-14T06:50:18;6.03;;;5.43;;
10134;SDS011;5107;48.850;8.924;2023-06-14T06:52:44;7.97;;;5.35;;
10134;SDS011;5107;48.850;8.924;2023-06-14T06:55:10;9.47;;;5.33;;
10134;SDS011;5107;48.850;8.924;2023-06-14T06:57:36;5.85;;;5.00;;
10134;SDS011;5107;48.850;8.924;2023-06-14T07:00:01;6.00;;;5.40;;
10134;SDS011;5107;48.850;8.924;2023-06-14T07:02:27;7.20;;;5.53;;
10134;SDS011;5107;48.850;8.924;2023-06-14T07:04:53;6.57;;;5.10;;
10134;SDS011;5107;48.850;8.924;2023-06-14T07:07:18;6.80;;;5.80;;
10134;SDS011;5107;48.850;8.924;2023-06-14T07:09:43;7.37;;;5.53;;
10134;SDS011;5107;48.850;8.924;2023-06-14T07:12:09;5.55;;;5.07;;
10134;SDS011;5107;48.850;8.924;2023-06-14T07:14:35;8.73;;;5.32;;
10134;SDS011;5107;48.850;8.924;2023-06-14T07:17:00;6.72;;;4.95;;
10134;SDS011;5107;48.850;8.924;2023-06-14T07:19:26;8.13;;;6.07;;
10134;SDS011;5107;48.850;8.924;2023-06-14T07:21:51;5.57;;;5.07;;
10134;SDS011;5107;48.850;8.924;2023-06-14T07:24:17;7.88;;;5.65;;
10134;SDS011;5107;48.850;8.924;2023-06-14T07:26:42;7.30;;;5.43;;
10134;SDS011;5107;48.850;8.924;2023-06-14T07:29:07;6.53;;;5.47;;
10134;SDS011;5107;48.850;8.924;2023-06-14T07:31:32;7.23;;;5.37;;
10134;SDS011;5107;48.850;8.924;2023-06-14T07:33:58;6.07;;;5.38;;
10134;SDS011;5107;48.850;8.924;2023-06-14T07:36:23;6.20;;;5.27;;
10134;SDS011;5107;48.850;8.924;2023-06-14T07:38:48;6.15;;;5.07;;
10134;SDS011;5107;48.850;8.924;2023-06-14T07:41:14;7.78;;;5.40;;
10134;SDS011;5107;48.850;8.924;2023-06-14T07:43:39;5.93;;;5.28;;
10134;SDS011;5107;48.850;8.924;2023-06-14T07:46:04;7.38;;;5.30;;
10134;SDS011;5107;48.850;8.924;2023-06-14T07:48:30;6.00;;;4.95;;
10134;SDS011;5107;48.850;8.924;2023-06-14T07:50:55;6.65;;;5.00;;
10134;SDS011;5107;48.850;8.924;2023-06-14T07:53:21;6.22;;;4.97;;
10134;SDS011;5107;48.850;8.924;2023-06-14T07:55:46;6.13;;;5.43;;
10134;SDS011;5107;48.850;8.924;2023-06-14T07:58:12;9.85;;;6.32;;
10134;SDS011;5107;48.850;8.924;2023-06-14T08:00:37;10.57;;;6.03;;
10134;SDS011;5107;48.850;8.924;2023-06-14T08:03:03;6.53;;;5.30;;
10134;SDS011;5107;48.850;8.924;2023-06-14T08:05:29;8.55;;;5.90;;
10134;SDS011;5107;48.850;8.924;2023-06-14T08:07:54;7.57;;;5.88;;
10134;SDS011;5107;48.850;8.924;2023-06-14T08:10:20;6.68;;;5.18;;
10134;SDS011;5107;48.850;8.924;2023-06-14T08:12:46;8.27;;;5.30;;
10134;SDS011;5107;48.850;8.924;2023-06-14T08:15:11;5.95;;;5.35;;
10134;SDS011;5107;48.850;8.924;2023-06-14T08:17:37;6.07;;;5.47;;
10134;SDS011;5107;48.850;8.924;2023-06-14T08:20:03;10.00;;;5.93;;
10134;SDS011;5107;48.850;8.924;2023-06-14T08:22:30;7.63;;;6.68;;
10134;SDS011;5107;48.850;8.924;2023-06-14T08:24:58;6.85;;;5.70;;
10134;SDS011;5107;48.850;8.924;2023-06-14T08:27:24;6.60;;;5.82;;
10134;SDS011;5107;48.850;8.924;2023-06-14T08:29:50;6.10;;;5.50;;
10134;SDS011;5107;48.850;8.924;2023-06-14T08:32:15;9.82;;;5.53;;
10134;SDS011;5107;48.850;8.924;2023-06-14T08:34:40;6.57;;;5.53;;
10134;SDS011;5107;48.850;8.924;2023-06-14T08:37:06;7.57;;;5.65;;
10134;SDS011;5107;48.850;8.924;2023-06-14T08:39:32;6.45;;;5.85;;
10134;SDS011;5107;48.850;8.924;2023-06-14T08:41:58;7.18;;;6.20;;
10134;SDS011;5107;48.850;8.924;2023-06-14T08:44:25;8.25;;;6.25;;
10134;SDS011;5107;48.850;8.924;2023-06-14T08:46:50;8.48;;;5.50;;
10134;SDS011;5107;48.850;8.924;2023-06-14T08:49:17;7.00;;;5.20;;
10134;SDS011;5107;48.850;8.924;2023-06-14T08:51:43;8.00;;;5.38;;
10134;SDS011;5107;48.850;8.924;2023-06-14T08:54:10;5.90;;;4.80;;
10134;SDS011;5107;48.850;8.924;2023-06-14T08:56:38;6.35;;;5.47;;
10134;SDS011;5107;48.850;8.924;2023-06-14T08:59:03;6.72;;;5.30;;
10134;SDS011;5107;48.850;8.924;2023-06-14T09:01:35;6.40;;;5.20;;
10134;SDS011;5107;48.850;8.924;2023-06-14T09:04:01;6.78;;;5.38;;
10134;SDS011;5107;48.850;8.924;2023-06-14T09:06:27;6.32;;;5.68;;
10134;SDS011;5107;48.850;8.924;2023-06-14T09:08:53;7.30;;;5.40;;
10134;SDS011;5107;48.850;8.924;2023-06-14T09:11:21;6.57;;;5.45;;
10134;SDS011;5107;48.850;8.924;2023-06-14T09:13:46;7.78;;;5.80;;
10134;SDS011;5107;48.850;8.924;2023-06-14T09:16:12;6.07;;;5.45;;
10134;SDS011;5107;48.850;8.924;2023-06-14T09:18:39;7.53;;;5.22;;
10134;SDS011;5107;48.850;8.924;2023-06-14T09:21:09;6.82;;;4.95;;
10134;SDS011;5107;48.850;8.924;2023-06-14T09:23:36;8.02;;;4.72;;
10134;SDS011;5107;48.850;8.924;2023-06-14T09:26:16;5.65;;;5.00;;
10134;SDS011;5107;48.850;8.924;2023-06-14T09:28:44;7.22;;;5.30;;
10134;SDS011;5107;48.850;8.924;2023-06-14T09:31:11;6.95;;;5.05;;
10134;SDS011;5107;48.850;8.924;2023-06-14T09:33:44;5.70;;;4.88;;
10134;SDS011;5107;48.850;8.924;2023-06-14T09:36:14;6.97;;;4.93;;
10134;SDS011;5107;48.850;8.924;2023-06-14T09:38:56;7.60;;;4.97;;
10134;SDS011;5107;48.850;8.924;2023-06-14T09:41:31;7.85;;;4.75;;
10134;SDS011;5107;48.850;8.924;2023-06-14T09:43:58;9.35;;;5.28;;
10134;SDS011;5107;48.850;8.924;2023-06-14T09:46:26;6.25;;;5.22;;
10134;SDS011;5107;48.850;8.924;2023-06-14T09:48:52;7.03;;;4.97;;
10134;SDS011;5107;48.850;8.924;2023-06-14T09:51:18;7.30;;;6.60;;
10134;SDS011;5107;48.850;8.924;2023-06-14T09:53:45;10.50;;;5.00;;
10134;SDS011;5107;48.850;8.924;2023-06-14T09:56:13;6.20;;;4.65;;
10134;SDS011;5107;48.850;8.924;2023-06-14T09:58:43;4.88;;;4.38;;
10134;SDS011;5107;48.850;8.924;2023-06-14T10:01:09;6.13;;;5.07;;
10134;SDS011;5107;48.850;8.924;2023-06-14T10:03:38;7.47;;;4.53;;
10134;SDS011;5107;48.850;8.924;2023-06-14T10:06:04;5.40;;;4.80;;
10134;SDS011;5107;48.850;8.924;2023-06-14T10:08:33;7.07;;;4.65;;
10134;SDS011;5107;48.850;8.924;2023-06-14T10:11:02;5.10;;;4.60;;
10134;SDS011;5107;48.850;8.924;2023-06-14T10:13:28;4.93;;;4.43;;
10134;SDS011;5107;48.850;8.924;2023-06-14T10:16:08;5.97;;;4.82;;
10134;SDS011;5107;48.850;8.924;2023-06-14T10:18:51;6.40;;;4.53;;
10134;SDS011;5107;48.850;8.924;2023-06-14T10:24:22;5.47;;;4.70;;
10134;SDS011;5107;48.850;8.924;2023-06-14T10:26:54;5.05;;;4.55;;
10134;SDS011;5107;48.850;8.924;2023-06-14T10:29:22;5.03;;;4.45;;
10134;SDS011;5107;48.850;8.924;2023-06-14T10:31:48;4.90;;;4.43;;
10134;SDS011;5107;48.850;8.924;2023-06-14T10:34:21;5.15;;;4.20;;
10134;SDS011;5107;48.850;8.924;2023-06-14T10:36:50;4.20;;;3.80;;
10134;SDS011;5107;48.850;8.924;2023-06-14T10:39:45;4.50;;;4.10;;
10134;SDS011;5107;48.850;8.924;2023-06-14T10:42:11;8.32;;;4.45;;
10134;SDS011;5107;48.850;8.924;2023-06-14T10:47:05;4.50;;;3.90;;
10134;SDS011;5107;48.850;8.924;2023-06-14T10:49:44;7.20;;;4.25;;
10134;SDS011;5107;48.850;8.924;2023-06-14T10:54:55;6.97;;;4.10;;
10134;SDS011;5107;48.850;8.924;2023-06-14T10:57:31;5.47;;;3.97;;
10134;SDS011;5107;48.850;8.924;2023-06-14T10:59:58;6.13;;;3.78;;
10134;SDS011;5107;48.850;8.924;2023-06-14T11:05:22;4.43;;;4.05;;
10134;SDS011;5107;48.850;8.924;2023-06-14T11:10:41;5.63;;;4.13;;
10134;SDS011;5107;48.850;8.924;2023-06-14T11:13:10;6.53;;;4.70;;
10134;SDS011;5107;48.850;8.924;2023-06-14T11:15:37;4.60;;;4.20;;
10134;SDS011;5107;48.850;8.924;2023-06-14T11:18:07;4.22;;;3.83;;
10134;SDS011;5107;48.850;8.924;2023-06-14T11:20:35;5.28;;;3.90;;
10134;SDS011;5107;48.850;8.924;2023-06-14T11:23:01;4.82;;;4.03;;
10134;SDS011;5107;48.850;8.924;2023-06-14T11:25:28;5.68;;;4.00;;
10134;SDS011;5107;48.850;8.924;2023-06-14T11:27:54;5.60;;;3.63;;
10134;SDS011;5107;48.850;8.924;2023-06-14T11:30:20;7.93;;;7.13;;
10134;SDS011;5107;48.850;8.924;2023-06-14T11:32:46;6.22;;;3.97;;
10134;SDS011;5107;48.850;8.924;2023-06-14T11:35:12;4.30;;;3.85;;
10134;SDS011;5107;48.850;8.924;2023-06-14T11:37:39;6.40;;;4.32;;
10134;SDS011;5107;48.850;8.924;2023-06-14T11:40:06;4.35;;;4.05;;
10134;SDS011;5107;48.850;8.924;2023-06-14T11:42:43;5.40;;;4.07;;
10134;SDS011;5107;48.850;8.924;2023-06-14T11:45:12;4.53;;;4.13;;
10134;SDS011;5107;48.850;8.924;2023-06-14T11:47:37;4.47;;;4.03;;
10134;SDS011;5107;48.850;8.924;2023-06-14T11:50:05;4.47;;;4.07;;
10134;SDS011;5107;48.850;8.924;2023-06-14T11:52:32;6.25;;;4.25;;
10134;SDS011;5107;48.850;8.924;2023-06-14T11:54:57;7.22;;;4.28;;
10134;SDS011;5107;48.850;8.924;2023-06-14T11:57:24;5.07;;;4.57;;
10134;SDS011;5107;48.850;8.924;2023-06-14T11:59:50;4.85;;;4.10;;
10134;SDS011;5107;48.850;8.924;2023-06-14T12:02:16;4.30;;;3.85;;
10134;SDS011;5107;48.850;8.924;2023-06-14T12:04:42;4.93;;;4.10;;
10134;SDS011;5107;48.850;8.924;2023-06-14T12:07:11;6.82;;;4.43;;
10134;SDS011;5107;48.850;8.924;2023-06-14T12:09:40;5.50;;;3.92;;
10134;SDS011;5107;48.850;8.924;2023-06-14T12:12:09;4.93;;;4.43;;
10134;SDS011;5107;48.850;8.924;2023-06-14T12:14:35;4.82;;;4.10;;
10134;SDS011;5107;48.850;8.924;2023-06-14T12:17:05;6.20;;;4.00;;
10134;SDS011;5107;48.850;8.924;2023-06-14T12:19:41;4.50;;;4.10;;
10134;SDS011;5107;48.850;8.924;2023-06-14T12:22:09;4.10;;;3.80;;
10134;SDS011;5107;48.850;8.924;2023-06-14T12:24:35;5.20;;;4.22;;
10134;SDS011;5107;48.850;8.924;2023-06-14T12:27:00;5.65;;;4.90;;
10134;SDS011;5107;48.850;8.924;2023-06-14T12:29:28;6.25;;;4.25;;
10134;SDS011;5107;48.850;8.924;2023-06-14T12:31:53;5.85;;;3.90;;
10134;SDS011;5107;48.850;8.924;2023-06-14T12:34:21;5.40;;;4.07;;
10134;SDS011;5107;48.850;8.924;2023-06-14T12:36:47;5.43;;;4.18;;
10134;SDS011;5107;48.850;8.924;2023-06-14T12:39:12;4.22;;;3.53;;
10134;SDS011;5107;48.850;8.924;2023-06-14T12:41:38;6.00;;;3.88;;
10134;SDS011;5107;48.850;8.924;2023-06-14T12:44:06;5.47;;;4.00;;
10134;SDS011;5107;48.850;8.924;2023-06-14T12:46:31;4.10;;;3.80;;
10134;SDS011;5107;48.850;8.924;2023-06-14T12:48:57;4.32;;;3.92;;
10134;SDS011;5107;48.850;8.924;2023-06-14T12:51:22;5.47;;;3.95;;
10134;SDS011;5107;48.850;8.924;2023-06-14T12:53:48;4.07;;;3.70;;
10134;SDS011;5107;48.850;8.924;2023-06-14T12:56:14;5.38;;;3.40;;
10134;SDS011;5107;48.850;8.924;2023-06-14T12:58:40;5.63;;;3.88;;
10134;SDS011;5107;48.850;8.924;2023-06-14T13:01:06;4.05;;;3.50;;
10134;SDS011;5107;48.850;8.924;2023-06-14T13:03:31;4.13;;;3.60;;
10134;SDS011;5107;48.850;8.924;2023-06-14T13:05:58;6.68;;;4.22;;
10134;SDS011;5107;48.850;8.924;2023-06-14T13:08:24;5.40;;;3.88;;
10134;SDS011;5107;48.850;8.924;2023-06-14T13:10:49;5.32;;;3.50;;
10134;SDS011;5107;48.850;8.924;2023-06-14T13:13:15;4.40;;;4.00;;
10134;SDS011;5107;48.850;8.924;2023-06-14T13:15:40;5.18;;;4.00;;
10134;SDS011;5107;48.850;8.924;2023-06-14T13:18:05;3.90;;;3.58;;
10134;SDS011;5107;48.850;8.924;2023-06-14T13:20:31;4.38;;;3.78;;
10134;SDS011;5107;48.850;8.924;2023-06-14T13:22:56;3.85;;;3.40;;
10134;SDS011;5107;48.850;8.924;2023-06-14T13:25:22;7.00;;;3.92;;
10134;SDS011;5107;48.850;8.924;2023-06-14T13:27:47;4.03;;;3.60;;
10134;SDS011;5107;48.850;8.924;2023-06-14T13:30:13;4.32;;;4.03;;
10134;SDS011;5107;48.850;8.924;2023-06-14T13:32:39;4.38;;;3.72;;
10134;SDS011;5107;48.850;8.924;2023-06-14T13:35:04;5.40;;;3.97;;
10134;SDS011;5107;48.850;8.924;2023-06-14T13:37:30;4.70;;;3.85;;
10134;SDS011;5107;48.850;8.924;2023-06-14T13:39:55;5.97;;;3.90;;
10134;SDS011;5107;48.850;8.924;2023-06-14T13:42:21;5.78;;;4.13;;
10134;SDS011;5107;48.850;8.924;2023-06-14T13:44:46;5.95;;;3.70;;
10134;SDS011;5107;48.850;8.924;2023-06-14T13:47:12;4.55;;;4.15;;
10134;SDS011;5107;48.850;8.924;2023-06-14T13:49:37;3.80;;;3.33;;
10134;SDS011;5107;48.850;8.924;2023-06-14T13:52:02;4.90;;;4.40;;
10134;SDS011;5107;48.850;8.924;2023-06-14T13:54:28;6.75;;;3.75;;
10134;SDS011;5107;48.850;8.924;2023-06-14T13:56:53;4.22;;;3.92;;
10134;SDS011;5107;48.850;8.924;2023-06-14T13:59:19;4.78;;;4.20;;
10134;SDS011;5107;48.850;8.924;2023-06-14T14:01:45;4.18;;;3.88;;
10134;SDS011;5107;48.850;8.924;2023-06-14T14:04:10;4.20;;;3.72;;
10134;SDS011;5107;48.850;8.924;2023-06-14T14:06:36;6.30;;;3.95;;
10134;SDS011;5107;48.850;8.924;2023-06-14T14:09:01;4.32;;;4.00;;
10134;SDS011;5107;48.850;8.924;2023-06-14T14:11:27;5.75;;;4.15;;
10134;SDS011;5107;48.850;8.924;2023-06-14T14:13:53;3.80;;;3.50;;
10134;SDS011;5107;48.850;8.924;2023-06-14T14:16:19;5.15;;;3.88;;
10134;SDS011;5107;48.850;8.924;2023-06-14T14:18:45;4.13;;;3.80;;
10134;SDS011;5107;48.850;8.924;2023-06-14T14:21:11;4.40;;;4.00;;
10134;SDS011;5107;48.850;8.924;2023-06-14T14:23:36;6.38;;;4.00;;
10134;SDS011;5107;48.850;8.924;2023-06-14T14:26:02;4.25;;;3.85;;
10134;SDS011;5107;48.850;8.924;2023-06-14T14:28:29;7.30;;;4.15;;
10134;SDS011;5107;48.850;8.924;2023-06-14T14:30:55;4.35;;;3.95;;
10134;SDS011;5107;48.850;8.924;2023-06-14T14:33:20;4.32;;;3.67;;
10134;SDS011;5107;48.850;8.924;2023-06-14T14:35:46;3.80;;;3.50;;
10134;SDS011;5107;48.850;8.924;2023-06-14T14:38:12;4.18;;;3.72;;
10134;SDS011;5107;48.850;8.924;2023-06-14T14:40:39;4.05;;;3.70;;
10134;SDS011;5107;48.850;8.924;2023-06-14T14:43:05;4.20;;;3.80;;
10134;SDS011;5107;48.850;8.924;2023-06-14T14:45:31;6.45;;;4.38;;
10134;SDS011;5107;48.850;8.924;2023-06-14T14:47:56;5.95;;;3.97;;
10134;SDS011;5107;48.850;8.924;2023-06-14T14:50:21;7.00;;;3.92;;
10134;SDS011;5107;48.850;8.924;2023-06-14T14:52:47;4.53;;;3.85;;
10134;SDS011;5107;48.850;8.924;2023-06-14T14:55:12;4.22;;;3.80;;
10134;SDS011;5107;48.850;8.924;2023-06-14T14:57:38;6.38;;;3.83;;
10134;SDS011;5107;48.850;8.924;2023-06-14T15:00:03;5.57;;;3.75;;
10134;SDS011;5107;48.850;8.924;2023-06-14T15:02:30;5.53;;;4.05;;
10134;SDS011;5107;48.850;8.924;2023-06-14T15:04:55;5.55;;;3.80;;
10134;SDS011;5107;48.850;8.924;2023-06-14T15:07:25;5.20;;;3.90;;
10134;SDS011;5107;48.850;8.924;2023-06-14T15:09:51;4.10;;;3.75;;
10134;SDS011;5107;48.850;8.924;2023-06-14T15:12:16;4.53;;;3.80;;
10134;SDS011;5107;48.850;8.924;2023-06-14T15:14:42;5.20;;;4.10;;
10134;SDS011;5107;48.850;8.924;2023-06-14T15:17:07;4.25;;;3.90;;